modablaj.com alexa rank chart, modablaj.com alexa rank daily changes

modablaj.com alexa rank chart, modablaj.com alexa rank daily changes

modablaj.com
Actual rank:
55 168

RANK HISTORY

Date Rank Diff
2018/04/19 55 168 -84 652
2018/04/18 139 820 +57 496
2018/04/17 82 324 +3 854
2018/04/16 78 470 +8 129
2018/04/15 70 341 -10 184
2018/04/14 80 525 -16 154
2018/04/13 96 679 +7 027
2018/04/12 89 652 +27 450
2018/04/11 62 202 -10 101
2018/04/10 72 303 +1 674
2018/04/09 70 629 -54 608
2018/04/08 125 237 +62 595
2018/04/07 62 642 -51 223
2018/04/06 113 865 +16 094
2018/04/05 97 771 -11 420
2018/04/04 109 191 -13 597
2018/04/03 122 788 +66 877
2018/04/02 55 911 -5 158
2018/04/01 61 069 -36 867
2018/03/31 97 936 +4 050
2018/03/30 93 886 +22 437
2018/03/29 71 449 -44 317
2018/03/28 115 766 +40 756
2018/03/27 75 010 +17 571
2018/03/26 57 439 -27 308
2018/03/25 84 747 -26 146
2018/03/24 110 893 +19 691
2018/03/23 91 202 -18 593
2018/03/22 109 795 +22 870
2018/03/21 86 925 +25 361
2018/03/20 61 564 -62 427
2018/03/19 123 991 +71 277
2018/03/18 52 714 -20 773
2018/03/17 73 487 -23 476
2018/03/16 96 963 -23 319
2018/03/15 120 282 +14 710
2018/03/14 105 572 +32 214
2018/03/13 73 358 +9 503
2018/03/12 63 855 -25 031
2018/03/11 88 886 +8 635
2018/03/10 80 251 -24 825
2018/03/09 105 076 -2 659
2018/03/08 107 735 +9 976
2018/03/07 97 759 -16 431
2018/03/06 114 190 +46 172
2018/03/05 68 018 -11 043
2018/03/04 79 061 -66 680
2018/03/03 145 741 +10 214
2018/03/02 135 527 +9 030
2018/03/01 126 497 +48 509
2018/02/28 77 988 -3 671
2018/02/27 81 659 -4 860
2018/02/26 86 519 -27 335
2018/02/25 113 854 +48 347
2018/02/24 65 507 +4 746
2018/02/23 60 761 -42 247
2018/02/22 103 008 +15 955
2018/02/21 87 053 -14 959
2018/02/20 102 012 +25 662
2018/02/19 76 350 -5 376
2018/02/18 81 726

WIDGET FOR YOUR SITE

DOMAINS WITH THE NEAREST RANK

Domain Rank
sokolov.ru 55 163
kiss-manga.com 55 164
logitec.co.jp 55 165
mosalingua.com 55 166
motorola.com.br 55 167
modablaj.com 55 168
902.gr 55 169
hintcenneti.com 55 170
goddl.com 55 171
36tempobet.com 55 172
glyphicons.com 55 173

DOMAINS WITH THE NEAREST RANK BY TLD .com

Domain Rank
musicantiga.com 55 155
civicx.com 55 156
thecheesecakefactory.com 55 162
kiss-manga.com 55 164
mosalingua.com 55 166
modablaj.com 55 168
hintcenneti.com 55 170
goddl.com 55 171
36tempobet.com 55 172
glyphicons.com 55 173
liquidplanner.com 55 174